createdAt,value
2022-10-13T00:01:24.500Z,3.13
2022-10-13T00:06:27.076Z,5.67
2022-10-13T00:11:31.393Z,2.43
2022-10-13T00:16:33.181Z,4.70
2022-10-13T00:21:35.187Z,8.83
2022-10-13T00:26:39.555Z,5.30
2022-10-13T00:31:41.868Z,4.10
2022-10-13T00:36:43.610Z,3.17
2022-10-13T00:41:46.942Z,4.90
2022-10-13T00:46:49.055Z,2.63
2022-10-13T00:51:51.369Z,4.07
2022-10-13T00:56:54.939Z,4.87
2022-10-13T01:01:59.547Z,3.73
2022-10-13T01:07:02.162Z,4.37
2022-10-13T01:12:14.244Z,5.13
2022-10-13T01:17:23.109Z,3.17
2022-10-13T01:22:45.446Z,5.30
2022-10-13T01:28:09.212Z,3.53
2022-10-13T01:33:24.276Z,5.60
2022-10-13T01:38:37.315Z,3.90
2022-10-13T01:43:43.315Z,5.53
2022-10-13T01:48:46.806Z,3.60
2022-10-13T01:53:49.344Z,3.50
2022-10-13T01:58:53.054Z,5.07
2022-10-13T02:04:10.278Z,5.93
2022-10-13T02:09:20.609Z,3.57
2022-10-13T02:14:27.104Z,4.50
2022-10-13T02:19:33.576Z,5.67
2022-10-13T02:24:36.117Z,4.80
2022-10-13T02:29:51.186Z,6.33
2022-10-13T02:34:54.497Z,3.30
2022-10-13T02:39:56.574Z,5.60
2022-10-13T02:44:58.365Z,4.50
2022-10-13T02:50:02.048Z,6.60
2022-10-13T02:55:04.921Z,5.70
2022-10-13T03:00:07.956Z,3.37
2022-10-13T03:05:11.000Z,3.50
2022-10-13T03:10:13.180Z,4.70
2022-10-13T03:15:15.266Z,3.93
2022-10-13T03:20:18.319Z,3.13
2022-10-13T03:25:20.165Z,5.13
2022-10-13T03:30:22.120Z,4.47
2022-10-13T03:35:25.576Z,3.67
2022-10-13T03:40:27.558Z,6.70
2022-10-13T03:45:29.370Z,6.73
2022-10-13T03:50:32.898Z,5.17
2022-10-13T03:55:34.688Z,7.40
2022-10-13T04:00:36.589Z,5.60
2022-10-13T04:05:40.063Z,5.03
2022-10-13T04:10:42.124Z,5.13
2022-10-13T04:15:43.794Z,6.27
2022-10-13T04:20:48.227Z,5.63
2022-10-13T04:25:50.400Z,8.70
2022-10-13T04:30:52.419Z,7.40
2022-10-13T04:35:56.227Z,4.77
2022-10-13T04:40:58.379Z,5.23
2022-10-13T04:46:01.260Z,6.33
2022-10-13T04:51:07.984Z,5.37
2022-10-13T04:56:11.989Z,4.73
2022-10-13T05:01:19.002Z,7.20
2022-10-13T05:06:27.116Z,4.77
2022-10-13T05:11:29.653Z,6.97
2022-10-13T05:16:32.294Z,9.03
2022-10-13T05:21:35.620Z,7.07
2022-10-13T05:26:37.582Z,6.40
2022-10-13T05:31:40.200Z,8.23
2022-10-13T05:36:43.519Z,7.40
2022-10-13T05:41:45.160Z,7.80
2022-10-13T05:46:47.129Z,7.87
2022-10-13T05:51:55.070Z,9.50
2022-10-13T05:57:01.596Z,6.13
2022-10-13T06:02:05.467Z,7.47
2022-10-13T06:07:10.013Z,7.37
2022-10-13T06:12:11.834Z,9.03
2022-10-13T06:17:13.855Z,7.87
2022-10-13T06:22:17.180Z,8.73
2022-10-13T06:27:19.395Z,9.53
2022-10-13T06:32:21.724Z,8.30
2022-10-13T06:37:27.522Z,7.60
2022-10-13T06:42:29.385Z,9.60
2022-10-13T06:47:31.567Z,10.57
2022-10-13T06:52:35.252Z,13.27
2022-10-13T06:57:37.255Z,10.07
2022-10-13T07:02:38.933Z,11.30
2022-10-13T07:07:42.481Z,12.60
2022-10-13T07:12:44.166Z,15.10
2022-10-13T07:17:45.785Z,8.87
2022-10-13T07:22:48.844Z,10.90
2022-10-13T07:27:50.476Z,12.80
2022-10-13T07:32:52.317Z,11.73
2022-10-13T07:37:55.392Z,12.10
2022-10-13T07:42:57.265Z,12.20
2022-10-13T07:47:58.850Z,12.67
2022-10-13T07:53:02.447Z,16.33
2022-10-13T07:58:04.092Z,10.67
2022-10-13T08:03:05.775Z,14.43
2022-10-13T08:08:09.166Z,13.70
2022-10-13T08:13:11.699Z,13.67
2022-10-13T08:18:14.987Z,12.47
2022-10-13T08:23:18.221Z,10.17
2022-10-13T08:28:22.616Z,11.77
2022-10-13T08:33:25.474Z,10.77
2022-10-13T08:38:28.461Z,8.77
2022-10-13T08:43:30.189Z,9.83
2022-10-13T08:48:37.283Z,9.40
2022-10-13T08:53:42.471Z,11.03
2022-10-13T08:58:44.363Z,12.47
2022-10-13T09:03:52.386Z,9.80
2022-10-13T09:08:58.038Z,9.27
2022-10-13T09:14:02.816Z,10.97
2022-10-13T09:19:26.157Z,10.07
2022-10-13T09:24:29.316Z,12.77
2022-10-13T09:29:31.309Z,10.40
2022-10-13T09:34:33.391Z,11.67
2022-10-13T09:39:36.883Z,12.17
2022-10-13T09:44:39.113Z,10.23
2022-10-13T09:49:43.221Z,12.90
2022-10-13T09:54:49.236Z,9.70
2022-10-13T09:59:53.484Z,8.83
2022-10-13T10:05:00.323Z,10.27
2022-10-13T10:10:13.175Z,10.10
2022-10-13T10:15:35.424Z,12.33
2022-10-13T10:20:46.533Z,6.50
2022-10-13T10:25:52.381Z,8.10
2022-10-13T10:30:57.516Z,10.32
2022-10-13T10:36:05.321Z,10.00
2022-10-13T10:41:23.129Z,9.07
2022-10-13T10:46:28.449Z,10.67
2022-10-13T10:51:33.014Z,10.73
2022-10-13T10:56:40.061Z,10.23
2022-10-13T11:01:47.107Z,6.23
2022-10-13T11:06:49.125Z,7.40
2022-10-13T11:11:52.745Z,8.23
2022-10-13T11:17:17.192Z,6.87
2022-10-13T11:22:22.127Z,7.50
2022-10-13T11:27:38.895Z,4.97
2022-10-13T11:32:45.560Z,11.73
2022-10-13T11:38:08.290Z,4.93
2022-10-13T11:43:26.215Z,7.67
2022-10-13T11:49:01.777Z,6.47
2022-10-13T11:54:19.372Z,5.83
2022-10-13T11:59:25.902Z,5.17
2022-10-13T12:04:29.143Z,6.13
2022-10-13T12:09:32.474Z,6.10
2022-10-13T12:14:39.772Z,5.20
2022-10-13T12:19:41.954Z,9.37
2022-10-13T12:24:43.971Z,8.70
2022-10-13T12:29:47.232Z,10.23
2022-10-13T12:34:49.319Z,8.20
2022-10-13T12:39:52.194Z,6.77
2022-10-13T12:44:56.764Z,9.50
2022-10-13T12:50:37.563Z,7.37
2022-10-13T12:55:49.970Z,5.60
2022-10-13T13:01:01.014Z,6.63
2022-10-13T13:06:20.853Z,7.57
2022-10-13T13:11:24.606Z,7.93
2022-10-13T13:16:27.778Z,8.87
2022-10-13T13:21:29.524Z,9.00
2022-10-13T13:26:31.297Z,6.73
2022-10-13T13:31:34.835Z,4.80
2022-10-13T13:36:36.617Z,9.33
2022-10-13T13:41:38.365Z,6.37
2022-10-13T13:46:41.901Z,7.20
2022-10-13T13:51:43.581Z,5.13
2022-10-13T13:56:45.753Z,4.50
2022-10-13T14:01:49.020Z,5.90
2022-10-13T14:06:51.525Z,5.73
2022-10-13T14:11:53.579Z,6.00
2022-10-13T14:16:57.305Z,5.87
2022-10-13T14:21:59.853Z,7.60
2022-10-13T14:27:01.500Z,5.23
2022-10-13T14:32:05.274Z,5.50
2022-10-13T14:37:06.954Z,5.57
2022-10-13T14:42:09.059Z,4.37
2022-10-13T14:47:12.569Z,7.13
2022-10-13T14:52:14.807Z,3.63
2022-10-13T14:57:16.926Z,5.30
2022-10-13T15:02:20.828Z,4.67
2022-10-13T15:07:22.906Z,5.17
2022-10-13T15:12:25.309Z,4.93
2022-10-13T15:17:29.902Z,4.53
2022-10-13T15:22:32.229Z,7.57
2022-10-13T15:27:38.071Z,5.30
2022-10-13T15:32:44.691Z,7.63
2022-10-13T15:37:46.437Z,7.53
2022-10-13T15:42:48.422Z,3.97
2022-10-13T15:47:52.367Z,4.20
2022-10-13T15:52:54.129Z,4.97
2022-10-13T15:57:55.956Z,4.90
2022-10-13T16:03:00.182Z,7.53
2022-10-13T16:08:01.884Z,4.13
2022-10-13T16:13:03.530Z,4.93
2022-10-13T16:18:06.575Z,7.23
2022-10-13T16:23:08.253Z,7.13
2022-10-13T16:28:10.308Z,7.83
2022-10-13T16:33:13.505Z,6.30
2022-10-13T16:38:15.820Z,7.20
2022-10-13T16:43:17.902Z,5.77
2022-10-13T16:48:20.895Z,11.17
2022-10-13T16:53:22.893Z,6.67
2022-10-13T16:58:24.768Z,7.73
2022-10-13T17:03:28.664Z,7.73
2022-10-13T17:08:31.339Z,5.83
2022-10-13T17:13:34.775Z,8.20
2022-10-13T17:18:37.863Z,5.33
2022-10-13T17:23:44.616Z,5.93
2022-10-13T17:28:49.575Z,8.60
2022-10-13T17:33:53.270Z,6.30
2022-10-13T17:38:56.587Z,8.00
2022-10-13T17:43:58.255Z,5.23
2022-10-13T17:49:01.761Z,7.07
2022-10-13T17:54:03.973Z,5.67
2022-10-13T17:59:05.988Z,6.13
2022-10-13T18:04:11.889Z,4.33
2022-10-13T18:09:16.202Z,4.23
2022-10-13T18:14:18.414Z,7.27
2022-10-13T18:19:22.280Z,8.30
2022-10-13T18:24:25.095Z,6.80
2022-10-13T18:29:26.986Z,5.47
2022-10-13T18:34:30.477Z,5.27
2022-10-13T18:39:32.139Z,10.13
2022-10-13T18:44:34.677Z,6.47
2022-10-13T18:49:38.121Z,6.87
2022-10-13T18:54:40.174Z,8.17
2022-10-13T18:59:41.855Z,9.67
2022-10-13T19:04:46.314Z,6.17
2022-10-13T19:09:47.903Z,6.50
2022-10-13T19:14:49.745Z,5.77
2022-10-13T19:19:53.481Z,5.90
2022-10-13T19:24:55.164Z,7.77
2022-10-13T19:29:57.016Z,5.53
2022-10-13T19:35:00.043Z,6.60
2022-10-13T19:40:02.281Z,5.27
2022-10-13T19:45:05.836Z,5.17
2022-10-13T19:50:09.677Z,5.57
2022-10-13T19:55:11.716Z,6.10
2022-10-13T20:00:15.166Z,5.53
2022-10-13T20:05:23.234Z,5.70
2022-10-13T20:10:27.668Z,5.30
2022-10-13T20:15:29.310Z,6.40
2022-10-13T20:20:34.016Z,6.53
2022-10-13T20:25:36.714Z,5.90
2022-10-13T20:30:39.259Z,6.27
2022-10-13T20:35:42.572Z,4.80
2022-10-13T20:40:44.512Z,6.70
2022-10-13T20:45:46.777Z,4.80
2022-10-13T20:50:50.307Z,7.50
2022-10-13T20:55:55.637Z,6.53
2022-10-13T21:00:57.970Z,7.13
2022-10-13T21:06:02.832Z,7.53
2022-10-13T21:11:06.278Z,7.23
2022-10-13T21:16:09.443Z,5.73
2022-10-13T21:21:12.969Z,7.93
2022-10-13T21:26:18.967Z,5.83
2022-10-13T21:31:24.615Z,6.33
2022-10-13T21:36:30.195Z,5.33
2022-10-13T21:41:32.160Z,8.27
2022-10-13T21:46:34.779Z,7.37
2022-10-13T21:51:39.895Z,9.67
2022-10-13T21:56:42.248Z,6.93
2022-10-13T22:01:43.896Z,5.50
2022-10-13T22:06:47.604Z,6.80
2022-10-13T22:11:51.823Z,7.03
2022-10-13T22:16:57.246Z,7.33
2022-10-13T22:22:00.638Z,8.20
2022-10-13T22:27:02.311Z,7.83
2022-10-13T22:32:04.534Z,6.77
2022-10-13T22:37:08.067Z,5.97
2022-10-13T22:42:10.172Z,8.33
2022-10-13T22:47:12.147Z,8.23
2022-10-13T22:52:15.107Z,6.53
2022-10-13T22:57:17.235Z,7.87
2022-10-13T23:02:19.337Z,7.50
2022-10-13T23:07:22.902Z,6.37
2022-10-13T23:12:25.208Z,7.10
2022-10-13T23:17:26.894Z,10.03
2022-10-13T23:22:30.146Z,5.67
2022-10-13T23:27:32.129Z,7.30
2022-10-13T23:32:34.298Z,7.63
2022-10-13T23:37:37.636Z,7.97
2022-10-13T23:42:39.263Z,9.43
2022-10-13T23:47:41.200Z,9.87
2022-10-13T23:52:44.544Z,7.77
2022-10-13T23:57:46.200Z,8.27
